sensor_id;sensor_type;location;lat;lon;timestamp;P1;durP1;ratioP1;P2;durP2;ratioP2
41687;SDS011;27371;42.686;23.362;2022-12-17T00:01:52;28.92;;;19.70;;
41687;SDS011;27371;42.686;23.362;2022-12-17T00:04:35;23.65;;;16.90;;
41687;SDS011;27371;42.686;23.362;2022-12-17T00:07:20;30.88;;;22.27;;
41687;SDS011;27371;42.686;23.362;2022-12-17T00:10:04;28.35;;;20.48;;
41687;SDS011;27371;42.686;23.362;2022-12-17T00:12:48;27.27;;;19.48;;
41687;SDS011;27371;42.686;23.362;2022-12-17T00:15:32;32.17;;;19.50;;
41687;SDS011;27371;42.686;23.362;2022-12-17T00:18:17;24.27;;;17.80;;
41687;SDS011;27371;42.686;23.362;2022-12-17T00:21:04;22.92;;;15.77;;
41687;SDS011;27371;42.686;23.362;2022-12-17T00:23:49;26.25;;;17.67;;
41687;SDS011;27371;42.686;23.362;2022-12-17T00:26:33;24.65;;;18.10;;
41687;SDS011;27371;42.686;23.362;2022-12-17T00:29:18;28.77;;;18.60;;
41687;SDS011;27371;42.686;23.362;2022-12-17T00:32:01;23.73;;;16.48;;
41687;SDS011;27371;42.686;23.362;2022-12-17T00:34:46;26.58;;;18.55;;
41687;SDS011;27371;42.686;23.362;2022-12-17T00:37:30;26.08;;;18.00;;
41687;SDS011;27371;42.686;23.362;2022-12-17T00:40:14;24.73;;;17.80;;
41687;SDS011;27371;42.686;23.362;2022-12-17T00:42:59;21.02;;;13.90;;
41687;SDS011;27371;42.686;23.362;2022-12-17T00:45:48;26.90;;;19.35;;
41687;SDS011;27371;42.686;23.362;2022-12-17T00:48:32;28.02;;;18.70;;
41687;SDS011;27371;42.686;23.362;2022-12-17T00:51:16;31.65;;;20.65;;
41687;SDS011;27371;42.686;23.362;2022-12-17T00:54:01;30.17;;;18.45;;
41687;SDS011;27371;42.686;23.362;2022-12-17T00:56:45;17.90;;;12.10;;
41687;SDS011;27371;42.686;23.362;2022-12-17T00:59:29;22.17;;;14.13;;
41687;SDS011;27371;42.686;23.362;2022-12-17T01:02:13;24.67;;;16.30;;
41687;SDS011;27371;42.686;23.362;2022-12-17T01:04:57;25.55;;;17.83;;
41687;SDS011;27371;42.686;23.362;2022-12-17T01:07:41;21.50;;;14.55;;
41687;SDS011;27371;42.686;23.362;2022-12-17T01:10:26;23.80;;;15.67;;
41687;SDS011;27371;42.686;23.362;2022-12-17T01:13:14;21.73;;;13.93;;
41687;SDS011;27371;42.686;23.362;2022-12-17T01:16:04;26.17;;;17.70;;
41687;SDS011;27371;42.686;23.362;2022-12-17T01:18:57;28.05;;;17.75;;
41687;SDS011;27371;42.686;23.362;2022-12-17T01:21:43;23.85;;;16.50;;
41687;SDS011;27371;42.686;23.362;2022-12-17T01:24:28;27.83;;;19.02;;
41687;SDS011;27371;42.686;23.362;2022-12-17T01:27:12;25.25;;;18.45;;
41687;SDS011;27371;42.686;23.362;2022-12-17T01:29:56;27.23;;;18.63;;
41687;SDS011;27371;42.686;23.362;2022-12-17T01:32:40;21.08;;;14.70;;
41687;SDS011;27371;42.686;23.362;2022-12-17T01:35:25;27.23;;;18.60;;
41687;SDS011;27371;42.686;23.362;2022-12-17T01:38:16;21.58;;;16.10;;
41687;SDS011;27371;42.686;23.362;2022-12-17T01:41:02;24.88;;;16.90;;
41687;SDS011;27371;42.686;23.362;2022-12-17T01:46:32;25.15;;;18.00;;
41687;SDS011;27371;42.686;23.362;2022-12-17T01:49:21;28.63;;;17.63;;
41687;SDS011;27371;42.686;23.362;2022-12-17T01:52:07;23.75;;;16.77;;
41687;SDS011;27371;42.686;23.362;2022-12-17T01:54:53;24.88;;;17.27;;
41687;SDS011;27371;42.686;23.362;2022-12-17T01:57:37;19.58;;;13.38;;
41687;SDS011;27371;42.686;23.362;2022-12-17T02:00:22;21.75;;;14.15;;
41687;SDS011;27371;42.686;23.362;2022-12-17T02:03:12;21.23;;;14.57;;
41687;SDS011;27371;42.686;23.362;2022-12-17T02:06:02;22.77;;;16.38;;
41687;SDS011;27371;42.686;23.362;2022-12-17T02:12:04;19.77;;;13.82;;
41687;SDS011;27371;42.686;23.362;2022-12-17T02:15:03;24.65;;;16.63;;
41687;SDS011;27371;42.686;23.362;2022-12-17T02:17:51;23.73;;;16.58;;
41687;SDS011;27371;42.686;23.362;2022-12-17T02:20:38;22.27;;;15.50;;
41687;SDS011;27371;42.686;23.362;2022-12-17T02:26:42;22.00;;;15.18;;
41687;SDS011;27371;42.686;23.362;2022-12-17T02:29:30;23.05;;;13.75;;
41687;SDS011;27371;42.686;23.362;2022-12-17T02:32:18;19.15;;;14.15;;
41687;SDS011;27371;42.686;23.362;2022-12-17T02:35:48;21.52;;;14.95;;
41687;SDS011;27371;42.686;23.362;2022-12-17T02:38:19;19.08;;;13.90;;
41687;SDS011;27371;42.686;23.362;2022-12-17T02:41:05;21.30;;;13.38;;
41687;SDS011;27371;42.686;23.362;2022-12-17T02:43:52;21.65;;;14.73;;
41687;SDS011;27371;42.686;23.362;2022-12-17T02:49:24;19.98;;;13.63;;
41687;SDS011;27371;42.686;23.362;2022-12-17T02:52:08;19.63;;;12.90;;
41687;SDS011;27371;42.686;23.362;2022-12-17T02:54:53;21.20;;;12.95;;
41687;SDS011;27371;42.686;23.362;2022-12-17T02:57:37;22.45;;;14.25;;
41687;SDS011;27371;42.686;23.362;2022-12-17T03:00:21;18.38;;;13.75;;
41687;SDS011;27371;42.686;23.362;2022-12-17T03:03:05;18.30;;;12.70;;
41687;SDS011;27371;42.686;23.362;2022-12-17T03:05:49;21.02;;;13.43;;
41687;SDS011;27371;42.686;23.362;2022-12-17T03:08:33;18.90;;;13.18;;
41687;SDS011;27371;42.686;23.362;2022-12-17T03:11:17;20.27;;;14.45;;
41687;SDS011;27371;42.686;23.362;2022-12-17T03:14:01;21.30;;;14.60;;
41687;SDS011;27371;42.686;23.362;2022-12-17T03:16:45;21.83;;;13.60;;
41687;SDS011;27371;42.686;23.362;2022-12-17T03:19:29;25.73;;;14.30;;
41687;SDS011;27371;42.686;23.362;2022-12-17T03:22:13;19.42;;;13.93;;
41687;SDS011;27371;42.686;23.362;2022-12-17T03:24:57;18.77;;;12.68;;
41687;SDS011;27371;42.686;23.362;2022-12-17T03:27:46;20.95;;;13.13;;
41687;SDS011;27371;42.686;23.362;2022-12-17T03:30:30;22.10;;;13.38;;
41687;SDS011;27371;42.686;23.362;2022-12-17T03:33:14;16.13;;;11.25;;
41687;SDS011;27371;42.686;23.362;2022-12-17T03:35:58;19.17;;;13.18;;
41687;SDS011;27371;42.686;23.362;2022-12-17T03:38:42;15.75;;;11.70;;
41687;SDS011;27371;42.686;23.362;2022-12-17T03:41:26;16.27;;;10.98;;
41687;SDS011;27371;42.686;23.362;2022-12-17T03:44:10;15.00;;;10.55;;
41687;SDS011;27371;42.686;23.362;2022-12-17T03:46:54;16.67;;;11.80;;
41687;SDS011;27371;42.686;23.362;2022-12-17T03:49:38;30.02;;;14.80;;
41687;SDS011;27371;42.686;23.362;2022-12-17T03:52:22;17.20;;;11.57;;
41687;SDS011;27371;42.686;23.362;2022-12-17T03:55:06;14.40;;;10.82;;
41687;SDS011;27371;42.686;23.362;2022-12-17T03:57:50;16.00;;;11.45;;
41687;SDS011;27371;42.686;23.362;2022-12-17T04:00:34;17.63;;;13.10;;
41687;SDS011;27371;42.686;23.362;2022-12-17T04:03:18;23.63;;;14.23;;
41687;SDS011;27371;42.686;23.362;2022-12-17T04:06:02;14.85;;;11.07;;
41687;SDS011;27371;42.686;23.362;2022-12-17T04:08:46;14.90;;;11.90;;
41687;SDS011;27371;42.686;23.362;2022-12-17T04:11:30;15.18;;;11.40;;
41687;SDS011;27371;42.686;23.362;2022-12-17T04:14:14;14.95;;;11.27;;
41687;SDS011;27371;42.686;23.362;2022-12-17T04:16:58;15.57;;;11.00;;
41687;SDS011;27371;42.686;23.362;2022-12-17T04:19:42;16.00;;;11.57;;
41687;SDS011;27371;42.686;23.362;2022-12-17T04:22:26;14.75;;;11.18;;
41687;SDS011;27371;42.686;23.362;2022-12-17T04:25:10;23.85;;;11.23;;
41687;SDS011;27371;42.686;23.362;2022-12-17T04:27:54;15.82;;;10.80;;
41687;SDS011;27371;42.686;23.362;2022-12-17T04:30:38;17.83;;;10.10;;
41687;SDS011;27371;42.686;23.362;2022-12-17T04:33:22;15.05;;;9.40;;
41687;SDS011;27371;42.686;23.362;2022-12-17T04:36:07;18.08;;;10.68;;
41687;SDS011;27371;42.686;23.362;2022-12-17T04:38:51;15.18;;;9.88;;
41687;SDS011;27371;42.686;23.362;2022-12-17T04:41:35;15.18;;;10.27;;
41687;SDS011;27371;42.686;23.362;2022-12-17T04:44:19;13.27;;;9.43;;
41687;SDS011;27371;42.686;23.362;2022-12-17T04:47:03;16.55;;;10.88;;
41687;SDS011;27371;42.686;23.362;2022-12-17T04:50:03;16.02;;;10.35;;
41687;SDS011;27371;42.686;23.362;2022-12-17T04:52:48;15.88;;;11.23;;
41687;SDS011;27371;42.686;23.362;2022-12-17T04:55:32;18.20;;;12.77;;
41687;SDS011;27371;42.686;23.362;2022-12-17T04:58:16;17.75;;;11.43;;
41687;SDS011;27371;42.686;23.362;2022-12-17T05:01:00;15.55;;;9.68;;
41687;SDS011;27371;42.686;23.362;2022-12-17T05:03:44;13.10;;;9.20;;
41687;SDS011;27371;42.686;23.362;2022-12-17T05:06:28;12.05;;;9.15;;
41687;SDS011;27371;42.686;23.362;2022-12-17T05:09:29;13.82;;;8.85;;
41687;SDS011;27371;42.686;23.362;2022-12-17T05:12:13;14.73;;;8.95;;
41687;SDS011;27371;42.686;23.362;2022-12-17T05:14:57;12.40;;;8.57;;
41687;SDS011;27371;42.686;23.362;2022-12-17T05:17:41;12.80;;;8.82;;
41687;SDS011;27371;42.686;23.362;2022-12-17T05:20:25;17.08;;;8.88;;
41687;SDS011;27371;42.686;23.362;2022-12-17T05:23:09;12.40;;;8.20;;
41687;SDS011;27371;42.686;23.362;2022-12-17T05:26:04;16.33;;;8.82;;
41687;SDS011;27371;42.686;23.362;2022-12-17T05:28:51;12.68;;;9.18;;
41687;SDS011;27371;42.686;23.362;2022-12-17T05:31:35;11.73;;;8.20;;
41687;SDS011;27371;42.686;23.362;2022-12-17T05:34:19;14.63;;;8.70;;
41687;SDS011;27371;42.686;23.362;2022-12-17T05:37:03;13.07;;;9.18;;
41687;SDS011;27371;42.686;23.362;2022-12-17T05:39:47;13.95;;;9.13;;
41687;SDS011;27371;42.686;23.362;2022-12-17T05:42:31;13.98;;;8.55;;
41687;SDS011;27371;42.686;23.362;2022-12-17T05:45:15;14.18;;;9.23;;
41687;SDS011;27371;42.686;23.362;2022-12-17T05:47:59;18.52;;;11.20;;
41687;SDS011;27371;42.686;23.362;2022-12-17T05:50:47;16.23;;;10.18;;
41687;SDS011;27371;42.686;23.362;2022-12-17T05:53:32;15.18;;;11.13;;
41687;SDS011;27371;42.686;23.362;2022-12-17T05:56:16;14.80;;;11.27;;
41687;SDS011;27371;42.686;23.362;2022-12-17T05:59:00;16.48;;;10.32;;
41687;SDS011;27371;42.686;23.362;2022-12-17T06:01:43;15.48;;;8.68;;
41687;SDS011;27371;42.686;23.362;2022-12-17T06:04:27;14.05;;;9.40;;
41687;SDS011;27371;42.686;23.362;2022-12-17T06:07:11;9.50;;;7.05;;
41687;SDS011;27371;42.686;23.362;2022-12-17T06:09:55;10.27;;;7.85;;
41687;SDS011;27371;42.686;23.362;2022-12-17T06:12:39;10.48;;;6.60;;
41687;SDS011;27371;42.686;23.362;2022-12-17T06:15:23;10.10;;;7.57;;
41687;SDS011;27371;42.686;23.362;2022-12-17T06:18:07;9.05;;;6.85;;
41687;SDS011;27371;42.686;23.362;2022-12-17T06:20:51;10.35;;;7.68;;
41687;SDS011;27371;42.686;23.362;2022-12-17T06:23:35;13.07;;;8.07;;
41687;SDS011;27371;42.686;23.362;2022-12-17T06:26:19;13.23;;;9.10;;
41687;SDS011;27371;42.686;23.362;2022-12-17T06:29:03;14.55;;;9.30;;
41687;SDS011;27371;42.686;23.362;2022-12-17T06:31:47;13.95;;;9.63;;
41687;SDS011;27371;42.686;23.362;2022-12-17T06:34:35;14.40;;;8.68;;
41687;SDS011;27371;42.686;23.362;2022-12-17T06:37:19;15.02;;;9.40;;
41687;SDS011;27371;42.686;23.362;2022-12-17T06:40:03;15.93;;;9.30;;
41687;SDS011;27371;42.686;23.362;2022-12-17T06:42:54;16.05;;;10.80;;
41687;SDS011;27371;42.686;23.362;2022-12-17T06:45:38;16.30;;;10.10;;
41687;SDS011;27371;42.686;23.362;2022-12-17T06:48:23;15.15;;;10.57;;
41687;SDS011;27371;42.686;23.362;2022-12-17T06:51:07;15.75;;;9.80;;
41687;SDS011;27371;42.686;23.362;2022-12-17T06:53:50;15.90;;;10.38;;
41687;SDS011;27371;42.686;23.362;2022-12-17T06:56:34;12.82;;;9.43;;
41687;SDS011;27371;42.686;23.362;2022-12-17T06:59:18;21.95;;;9.98;;
41687;SDS011;27371;42.686;23.362;2022-12-17T07:02:02;14.40;;;9.75;;
41687;SDS011;27371;42.686;23.362;2022-12-17T07:04:46;15.25;;;9.20;;
41687;SDS011;27371;42.686;23.362;2022-12-17T07:07:30;15.82;;;9.85;;
41687;SDS011;27371;42.686;23.362;2022-12-17T07:10:13;14.90;;;9.95;;
41687;SDS011;27371;42.686;23.362;2022-12-17T07:13:04;15.48;;;9.35;;
41687;SDS011;27371;42.686;23.362;2022-12-17T07:15:49;18.48;;;9.55;;
41687;SDS011;27371;42.686;23.362;2022-12-17T07:18:34;15.88;;;9.07;;
41687;SDS011;27371;42.686;23.362;2022-12-17T07:21:18;12.25;;;8.70;;
41687;SDS011;27371;42.686;23.362;2022-12-17T07:24:02;11.93;;;7.20;;
41687;SDS011;27371;42.686;23.362;2022-12-17T07:26:49;11.65;;;7.45;;
41687;SDS011;27371;42.686;23.362;2022-12-17T07:29:34;13.00;;;7.40;;
41687;SDS011;27371;42.686;23.362;2022-12-17T07:32:18;10.95;;;7.00;;
41687;SDS011;27371;42.686;23.362;2022-12-17T07:35:02;16.77;;;7.22;;
41687;SDS011;27371;42.686;23.362;2022-12-17T07:37:46;14.02;;;7.38;;
41687;SDS011;27371;42.686;23.362;2022-12-17T07:40:30;13.73;;;8.93;;
41687;SDS011;27371;42.686;23.362;2022-12-17T07:43:15;12.35;;;7.45;;
41687;SDS011;27371;42.686;23.362;2022-12-17T07:45:59;12.23;;;7.97;;
41687;SDS011;27371;42.686;23.362;2022-12-17T07:48:43;15.55;;;8.70;;
41687;SDS011;27371;42.686;23.362;2022-12-17T07:51:27;11.87;;;8.23;;
41687;SDS011;27371;42.686;23.362;2022-12-17T07:54:11;16.98;;;9.15;;
41687;SDS011;27371;42.686;23.362;2022-12-17T07:57:03;15.48;;;9.02;;
41687;SDS011;27371;42.686;23.362;2022-12-17T07:59:47;12.55;;;7.80;;
41687;SDS011;27371;42.686;23.362;2022-12-17T08:02:31;12.70;;;7.85;;
41687;SDS011;27371;42.686;23.362;2022-12-17T08:05:15;11.98;;;9.20;;
41687;SDS011;27371;42.686;23.362;2022-12-17T08:08:05;15.15;;;8.43;;
41687;SDS011;27371;42.686;23.362;2022-12-17T08:10:53;12.43;;;8.73;;
41687;SDS011;27371;42.686;23.362;2022-12-17T08:13:37;12.15;;;8.63;;
41687;SDS011;27371;42.686;23.362;2022-12-17T08:16:20;12.52;;;8.38;;
41687;SDS011;27371;42.686;23.362;2022-12-17T08:19:06;12.57;;;8.98;;
41687;SDS011;27371;42.686;23.362;2022-12-17T08:21:50;17.17;;;9.50;;
41687;SDS011;27371;42.686;23.362;2022-12-17T08:24:34;17.17;;;10.07;;
41687;SDS011;27371;42.686;23.362;2022-12-17T08:27:18;13.80;;;9.20;;
41687;SDS011;27371;42.686;23.362;2022-12-17T08:30:02;15.43;;;10.52;;
41687;SDS011;27371;42.686;23.362;2022-12-17T08:32:46;15.77;;;10.88;;
41687;SDS011;27371;42.686;23.362;2022-12-17T08:35:31;19.08;;;10.48;;
41687;SDS011;27371;42.686;23.362;2022-12-17T08:38:15;15.43;;;11.27;;
41687;SDS011;27371;42.686;23.362;2022-12-17T08:40:59;21.02;;;11.82;;
41687;SDS011;27371;42.686;23.362;2022-12-17T08:43:44;17.08;;;10.55;;
41687;SDS011;27371;42.686;23.362;2022-12-17T08:46:28;19.45;;;12.05;;
41687;SDS011;27371;42.686;23.362;2022-12-17T08:49:12;15.80;;;11.13;;
41687;SDS011;27371;42.686;23.362;2022-12-17T08:51:56;15.65;;;10.60;;
41687;SDS011;27371;42.686;23.362;2022-12-17T08:54:40;13.93;;;8.23;;
41687;SDS011;27371;42.686;23.362;2022-12-17T08:57:23;11.13;;;7.43;;
41687;SDS011;27371;42.686;23.362;2022-12-17T09:00:07;11.52;;;4.90;;
41687;SDS011;27371;42.686;23.362;2022-12-17T09:02:56;5.80;;;3.42;;
41687;SDS011;27371;42.686;23.362;2022-12-17T09:05:41;5.60;;;3.40;;
41687;SDS011;27371;42.686;23.362;2022-12-17T09:08:25;7.20;;;3.30;;
41687;SDS011;27371;42.686;23.362;2022-12-17T09:11:09;7.50;;;3.80;;
41687;SDS011;27371;42.686;23.362;2022-12-17T09:13:53;5.30;;;3.00;;
41687;SDS011;27371;42.686;23.362;2022-12-17T09:16:37;9.73;;;3.50;;
41687;SDS011;27371;42.686;23.362;2022-12-17T09:19:22;11.93;;;3.67;;
41687;SDS011;27371;42.686;23.362;2022-12-17T09:22:06;8.88;;;3.33;;
41687;SDS011;27371;42.686;23.362;2022-12-17T09:24:50;7.07;;;3.35;;
41687;SDS011;27371;42.686;23.362;2022-12-17T09:27:34;7.35;;;3.28;;
41687;SDS011;27371;42.686;23.362;2022-12-17T09:30:18;8.32;;;4.13;;
41687;SDS011;27371;42.686;23.362;2022-12-17T09:33:02;7.05;;;4.28;;
41687;SDS011;27371;42.686;23.362;2022-12-17T09:35:46;8.18;;;3.88;;
41687;SDS011;27371;42.686;23.362;2022-12-17T09:38:30;5.82;;;3.38;;
41687;SDS011;27371;42.686;23.362;2022-12-17T09:41:28;4.80;;;2.83;;
41687;SDS011;27371;42.686;23.362;2022-12-17T09:44:20;6.75;;;2.53;;
41687;SDS011;27371;42.686;23.362;2022-12-17T09:50:29;6.53;;;3.03;;
41687;SDS011;27371;42.686;23.362;2022-12-17T09:53:20;4.63;;;2.97;;
41687;SDS011;27371;42.686;23.362;2022-12-17T09:56:10;5.55;;;2.88;;
41687;SDS011;27371;42.686;23.362;2022-12-17T09:58:56;6.57;;;2.90;;
41687;SDS011;27371;42.686;23.362;2022-12-17T10:01:41;9.07;;;2.73;;
41687;SDS011;27371;42.686;23.362;2022-12-17T10:04:32;5.90;;;2.38;;
41687;SDS011;27371;42.686;23.362;2022-12-17T10:07:21;5.60;;;2.40;;
41687;SDS011;27371;42.686;23.362;2022-12-17T10:15:57;8.88;;;2.55;;
41687;SDS011;27371;42.686;23.362;2022-12-17T10:18:41;4.97;;;1.73;;
41687;SDS011;27371;42.686;23.362;2022-12-17T10:21:27;5.03;;;2.30;;
41687;SDS011;27371;42.686;23.362;2022-12-17T10:24:12;4.43;;;2.22;;
41687;SDS011;27371;42.686;23.362;2022-12-17T10:26:56;5.30;;;1.77;;
41687;SDS011;27371;42.686;23.362;2022-12-17T10:29:41;4.50;;;1.95;;
41687;SDS011;27371;42.686;23.362;2022-12-17T10:32:27;5.07;;;1.63;;
41687;SDS011;27371;42.686;23.362;2022-12-17T10:41:22;3.08;;;1.73;;
41687;SDS011;27371;42.686;23.362;2022-12-17T10:47:25;5.07;;;1.80;;
41687;SDS011;27371;42.686;23.362;2022-12-17T10:50:17;2.42;;;1.20;;
41687;SDS011;27371;42.686;23.362;2022-12-17T10:53:04;4.53;;;1.95;;
41687;SDS011;27371;42.686;23.362;2022-12-17T10:55:59;3.13;;;1.63;;
41687;SDS011;27371;42.686;23.362;2022-12-17T10:58:45;2.85;;;1.55;;
41687;SDS011;27371;42.686;23.362;2022-12-17T11:01:32;3.40;;;1.70;;
41687;SDS011;27371;42.686;23.362;2022-12-17T11:04:21;1.88;;;0.90;;
41687;SDS011;27371;42.686;23.362;2022-12-17T11:07:13;3.42;;;2.17;;
41687;SDS011;27371;42.686;23.362;2022-12-17T11:10:04;3.00;;;0.88;;
41687;SDS011;27371;42.686;23.362;2022-12-17T11:12:57;2.53;;;1.05;;
41687;SDS011;27371;42.686;23.362;2022-12-17T11:15:47;3.10;;;1.77;;
41687;SDS011;27371;42.686;23.362;2022-12-17T11:22:36;1.20;;;0.50;;
41687;SDS011;27371;42.686;23.362;2022-12-17T11:28:21;3.85;;;1.60;;
41687;SDS011;27371;42.686;23.362;2022-12-17T11:37:10;12.07;;;7.28;;
41687;SDS011;27371;42.686;23.362;2022-12-17T11:46:30;4.72;;;3.08;;
41687;SDS011;27371;42.686;23.362;2022-12-17T11:49:42;5.25;;;2.83;;
41687;SDS011;27371;42.686;23.362;2022-12-17T11:59:10;2.17;;;1.25;;
41687;SDS011;27371;42.686;23.362;2022-12-17T12:07:32;4.22;;;1.73;;
41687;SDS011;27371;42.686;23.362;2022-12-17T12:13:25;6.03;;;3.85;;
41687;SDS011;27371;42.686;23.362;2022-12-17T12:22:37;6.35;;;3.47;;
41687;SDS011;27371;42.686;23.362;2022-12-17T12:25:34;4.90;;;2.70;;
41687;SDS011;27371;42.686;23.362;2022-12-17T12:34:30;13.07;;;5.93;;
41687;SDS011;27371;42.686;23.362;2022-12-17T12:37:17;7.57;;;5.00;;
41687;SDS011;27371;42.686;23.362;2022-12-17T12:40:06;7.93;;;4.07;;
41687;SDS011;27371;42.686;23.362;2022-12-17T12:43:23;9.60;;;4.35;;
41687;SDS011;27371;42.686;23.362;2022-12-17T12:49:18;6.13;;;3.40;;
41687;SDS011;27371;42.686;23.362;2022-12-17T12:52:08;9.27;;;4.80;;
41687;SDS011;27371;42.686;23.362;2022-12-17T12:54:55;11.57;;;6.75;;
41687;SDS011;27371;42.686;23.362;2022-12-17T12:57:41;17.50;;;11.82;;
41687;SDS011;27371;42.686;23.362;2022-12-17T13:00:39;20.17;;;13.23;;
41687;SDS011;27371;42.686;23.362;2022-12-17T13:06:47;9.50;;;6.68;;
41687;SDS011;27371;42.686;23.362;2022-12-17T13:11:43;11.93;;;6.03;;
41687;SDS011;27371;42.686;23.362;2022-12-17T13:19:44;12.20;;;6.38;;
41687;SDS011;27371;42.686;23.362;2022-12-17T13:24:48;10.07;;;6.93;;
41687;SDS011;27371;42.686;23.362;2022-12-17T13:32:57;9.70;;;5.32;;
41687;SDS011;27371;42.686;23.362;2022-12-17T13:35:38;12.57;;;6.68;;
41687;SDS011;27371;42.686;23.362;2022-12-17T13:38:29;13.52;;;9.05;;
41687;SDS011;27371;42.686;23.362;2022-12-17T13:43:39;10.82;;;5.97;;
41687;SDS011;27371;42.686;23.362;2022-12-17T13:46:28;12.10;;;5.65;;
41687;SDS011;27371;42.686;23.362;2022-12-17T13:49:04;7.35;;;4.95;;
41687;SDS011;27371;42.686;23.362;2022-12-17T13:54:28;10.40;;;4.63;;
41687;SDS011;27371;42.686;23.362;2022-12-17T13:56:53;9.82;;;5.18;;
41687;SDS011;27371;42.686;23.362;2022-12-17T13:59:20;8.48;;;5.82;;
41687;SDS011;27371;42.686;23.362;2022-12-17T14:01:51;7.57;;;5.30;;
41687;SDS011;27371;42.686;23.362;2022-12-17T14:04:27;7.28;;;5.18;;
41687;SDS011;27371;42.686;23.362;2022-12-17T14:06:55;8.48;;;5.47;;
41687;SDS011;27371;42.686;23.362;2022-12-17T14:09:38;6.30;;;4.10;;
41687;SDS011;27371;42.686;23.362;2022-12-17T14:12:09;8.48;;;4.15;;
41687;SDS011;27371;42.686;23.362;2022-12-17T14:15:00;9.18;;;4.63;;
41687;SDS011;27371;42.686;23.362;2022-12-17T14:17:28;10.18;;;6.38;;
41687;SDS011;27371;42.686;23.362;2022-12-17T14:20:05;15.77;;;8.23;;
41687;SDS011;27371;42.686;23.362;2022-12-17T14:22:40;10.05;;;5.70;;
41687;SDS011;27371;42.686;23.362;2022-12-17T14:25:21;10.98;;;5.90;;
41687;SDS011;27371;42.686;23.362;2022-12-17T14:27:58;10.70;;;5.60;;
41687;SDS011;27371;42.686;23.362;2022-12-17T14:32:57;10.90;;;7.47;;
41687;SDS011;27371;42.686;23.362;2022-12-17T14:37:48;12.20;;;6.43;;
41687;SDS011;27371;42.686;23.362;2022-12-17T14:40:13;11.23;;;7.30;;
41687;SDS011;27371;42.686;23.362;2022-12-17T14:42:39;11.50;;;7.18;;
41687;SDS011;27371;42.686;23.362;2022-12-17T14:47:50;10.63;;;5.75;;
41687;SDS011;27371;42.686;23.362;2022-12-17T14:53:22;11.57;;;7.05;;
41687;SDS011;27371;42.686;23.362;2022-12-17T14:55:51;10.75;;;7.47;;
41687;SDS011;27371;42.686;23.362;2022-12-17T14:58:21;12.45;;;7.68;;
41687;SDS011;27371;42.686;23.362;2022-12-17T15:00:52;15.25;;;7.63;;
41687;SDS011;27371;42.686;23.362;2022-12-17T15:05:56;8.38;;;5.72;;
41687;SDS011;27371;42.686;23.362;2022-12-17T15:08:23;9.95;;;6.07;;
41687;SDS011;27371;42.686;23.362;2022-12-17T15:10:48;13.23;;;6.57;;
41687;SDS011;27371;42.686;23.362;2022-12-17T15:13:14;16.02;;;7.78;;
41687;SDS011;27371;42.686;23.362;2022-12-17T15:15:40;12.23;;;7.47;;
41687;SDS011;27371;42.686;23.362;2022-12-17T15:18:05;14.13;;;7.65;;
41687;SDS011;27371;42.686;23.362;2022-12-17T15:20:31;12.82;;;7.82;;
41687;SDS011;27371;42.686;23.362;2022-12-17T15:22:56;11.27;;;7.93;;
41687;SDS011;27371;42.686;23.362;2022-12-17T15:25:22;14.40;;;8.30;;
41687;SDS011;27371;42.686;23.362;2022-12-17T15:27:47;11.75;;;7.78;;
41687;SDS011;27371;42.686;23.362;2022-12-17T15:30:16;14.95;;;8.88;;
41687;SDS011;27371;42.686;23.362;2022-12-17T15:32:42;12.75;;;8.25;;
41687;SDS011;27371;42.686;23.362;2022-12-17T15:35:09;18.33;;;9.57;;
41687;SDS011;27371;42.686;23.362;2022-12-17T15:37:35;21.20;;;10.77;;
41687;SDS011;27371;42.686;23.362;2022-12-17T15:40:01;20.98;;;10.68;;
41687;SDS011;27371;42.686;23.362;2022-12-17T15:42:27;15.15;;;8.15;;
41687;SDS011;27371;42.686;23.362;2022-12-17T15:45:11;12.07;;;8.07;;
41687;SDS011;27371;42.686;23.362;2022-12-17T15:47:37;14.05;;;8.70;;
41687;SDS011;27371;42.686;23.362;2022-12-17T15:50:03;11.60;;;7.90;;
41687;SDS011;27371;42.686;23.362;2022-12-17T15:52:29;19.77;;;10.55;;
41687;SDS011;27371;42.686;23.362;2022-12-17T15:54:54;16.90;;;9.80;;
41687;SDS011;27371;42.686;23.362;2022-12-17T15:57:19;12.00;;;8.38;;
41687;SDS011;27371;42.686;23.362;2022-12-17T15:59:45;9.98;;;6.93;;
41687;SDS011;27371;42.686;23.362;2022-12-17T16:02:11;13.00;;;7.88;;
41687;SDS011;27371;42.686;23.362;2022-12-17T16:04:37;15.40;;;8.60;;
41687;SDS011;27371;42.686;23.362;2022-12-17T16:07:02;18.50;;;10.88;;
41687;SDS011;27371;42.686;23.362;2022-12-17T16:09:29;15.65;;;11.80;;
41687;SDS011;27371;42.686;23.362;2022-12-17T16:11:55;14.73;;;10.55;;
41687;SDS011;27371;42.686;23.362;2022-12-17T16:14:21;13.77;;;9.43;;
41687;SDS011;27371;42.686;23.362;2022-12-17T16:16:48;13.13;;;8.75;;
41687;SDS011;27371;42.686;23.362;2022-12-17T16:19:14;14.25;;;9.15;;
41687;SDS011;27371;42.686;23.362;2022-12-17T16:21:39;12.57;;;8.57;;
41687;SDS011;27371;42.686;23.362;2022-12-17T16:24:05;11.65;;;8.23;;
41687;SDS011;27371;42.686;23.362;2022-12-17T16:26:30;16.45;;;11.00;;
41687;SDS011;27371;42.686;23.362;2022-12-17T16:28:56;16.33;;;11.65;;
41687;SDS011;27371;42.686;23.362;2022-12-17T16:31:22;18.02;;;13.18;;
41687;SDS011;27371;42.686;23.362;2022-12-17T16:33:47;27.98;;;19.48;;
41687;SDS011;27371;42.686;23.362;2022-12-17T16:36:14;26.10;;;17.92;;
41687;SDS011;27371;42.686;23.362;2022-12-17T16:38:42;31.20;;;18.67;;
41687;SDS011;27371;42.686;23.362;2022-12-17T16:41:12;27.75;;;17.67;;
41687;SDS011;27371;42.686;23.362;2022-12-17T16:43:38;25.45;;;17.70;;
41687;SDS011;27371;42.686;23.362;2022-12-17T16:46:04;20.88;;;15.82;;
41687;SDS011;27371;42.686;23.362;2022-12-17T16:48:35;23.20;;;16.25;;
41687;SDS011;27371;42.686;23.362;2022-12-17T16:51:09;24.25;;;16.73;;
41687;SDS011;27371;42.686;23.362;2022-12-17T16:53:39;29.65;;;17.58;;
41687;SDS011;27371;42.686;23.362;2022-12-17T16:56:05;27.30;;;17.58;;
41687;SDS011;27371;42.686;23.362;2022-12-17T16:58:31;24.15;;;16.33;;
41687;SDS011;27371;42.686;23.362;2022-12-17T17:00:56;28.92;;;16.88;;
41687;SDS011;27371;42.686;23.362;2022-12-17T17:03:22;27.88;;;20.25;;
41687;SDS011;27371;42.686;23.362;2022-12-17T17:05:47;26.95;;;18.98;;
41687;SDS011;27371;42.686;23.362;2022-12-17T17:08:13;30.83;;;20.42;;
41687;SDS011;27371;42.686;23.362;2022-12-17T17:10:38;28.55;;;20.38;;
41687;SDS011;27371;42.686;23.362;2022-12-17T17:13:03;27.35;;;17.92;;
41687;SDS011;27371;42.686;23.362;2022-12-17T17:15:29;26.48;;;19.88;;
41687;SDS011;27371;42.686;23.362;2022-12-17T17:17:55;28.20;;;20.42;;
41687;SDS011;27371;42.686;23.362;2022-12-17T17:20:20;29.42;;;18.52;;
41687;SDS011;27371;42.686;23.362;2022-12-17T17:22:46;28.30;;;18.42;;
41687;SDS011;27371;42.686;23.362;2022-12-17T17:25:12;37.33;;;26.02;;
41687;SDS011;27371;42.686;23.362;2022-12-17T17:27:37;21.48;;;13.93;;
41687;SDS011;27371;42.686;23.362;2022-12-17T17:30:03;24.27;;;15.93;;
41687;SDS011;27371;42.686;23.362;2022-12-17T17:32:28;25.48;;;17.45;;
41687;SDS011;27371;42.686;23.362;2022-12-17T17:34:54;26.17;;;16.42;;
41687;SDS011;27371;42.686;23.362;2022-12-17T17:37:19;24.48;;;16.92;;
41687;SDS011;27371;42.686;23.362;2022-12-17T17:39:44;29.23;;;16.33;;